sensor_id;sensor_type;location;lat;lon;timestamp;P1;durP1;ratioP1;P2;durP2;ratioP2
53890;SDS011;41337;51.400;-2.342;2023-07-16T00:01:04;22.75;;;4.70;;
53890;SDS011;41337;51.400;-2.342;2023-07-16T00:06:05;21.73;;;4.40;;
53890;SDS011;41337;51.400;-2.342;2023-07-16T00:11:05;21.75;;;4.63;;
53890;SDS011;41337;51.400;-2.342;2023-07-16T00:16:06;18.75;;;4.15;;
53890;SDS011;41337;51.400;-2.342;2023-07-16T00:21:07;19.00;;;4.75;;
53890;SDS011;41337;51.400;-2.342;2023-07-16T00:26:08;24.00;;;5.22;;
53890;SDS011;41337;51.400;-2.342;2023-07-16T00:31:09;25.67;;;5.30;;
53890;SDS011;41337;51.400;-2.342;2023-07-16T00:36:10;29.02;;;5.05;;
53890;SDS011;41337;51.400;-2.342;2023-07-16T00:41:12;30.88;;;5.38;;
53890;SDS011;41337;51.400;-2.342;2023-07-16T00:46:14;31.83;;;6.15;;
53890;SDS011;41337;51.400;-2.342;2023-07-16T00:51:16;26.10;;;4.63;;
53890;SDS011;41337;51.400;-2.342;2023-07-16T00:56:18;28.63;;;5.70;;
53890;SDS011;41337;51.400;-2.342;2023-07-16T01:01:19;34.72;;;6.65;;
53890;SDS011;41337;51.400;-2.342;2023-07-16T01:06:30;28.25;;;6.00;;
53890;SDS011;41337;51.400;-2.342;2023-07-16T01:11:37;34.83;;;5.35;;
53890;SDS011;41337;51.400;-2.342;2023-07-16T01:16:40;30.85;;;6.80;;
53890;SDS011;41337;51.400;-2.342;2023-07-16T01:32:07;24.73;;;6.35;;
53890;SDS011;41337;51.400;-2.342;2023-07-16T01:37:11;30.33;;;6.13;;
53890;SDS011;41337;51.400;-2.342;2023-07-16T01:42:12;29.38;;;4.82;;
53890;SDS011;41337;51.400;-2.342;2023-07-16T01:47:59;24.98;;;5.60;;
53890;SDS011;41337;51.400;-2.342;2023-07-16T01:52:49;19.33;;;4.72;;
53890;SDS011;41337;51.400;-2.342;2023-07-16T01:57:50;32.85;;;5.82;;
53890;SDS011;41337;51.400;-2.342;2023-07-16T02:02:51;27.60;;;4.65;;
53890;SDS011;41337;51.400;-2.342;2023-07-16T02:07:52;27.80;;;5.40;;
53890;SDS011;41337;51.400;-2.342;2023-07-16T02:12:52;25.55;;;4.65;;
53890;SDS011;41337;51.400;-2.342;2023-07-16T02:17:53;25.75;;;4.00;;
53890;SDS011;41337;51.400;-2.342;2023-07-16T02:22:54;28.80;;;5.53;;
53890;SDS011;41337;51.400;-2.342;2023-07-16T02:27:55;27.02;;;4.55;;
53890;SDS011;41337;51.400;-2.342;2023-07-16T02:32:56;30.73;;;5.43;;
53890;SDS011;41337;51.400;-2.342;2023-07-16T02:37:56;37.75;;;4.80;;
53890;SDS011;41337;51.400;-2.342;2023-07-16T02:42:57;21.08;;;3.60;;
53890;SDS011;41337;51.400;-2.342;2023-07-16T02:47:58;18.35;;;4.93;;
53890;SDS011;41337;51.400;-2.342;2023-07-16T02:52:59;20.85;;;4.63;;
53890;SDS011;41337;51.400;-2.342;2023-07-16T02:58:00;22.35;;;4.63;;
53890;SDS011;41337;51.400;-2.342;2023-07-16T03:03:04;24.98;;;4.03;;
53890;SDS011;41337;51.400;-2.342;2023-07-16T03:08:05;20.58;;;4.15;;
53890;SDS011;41337;51.400;-2.342;2023-07-16T03:13:11;22.40;;;4.22;;
53890;SDS011;41337;51.400;-2.342;2023-07-16T03:18:12;18.95;;;3.90;;
53890;SDS011;41337;51.400;-2.342;2023-07-16T03:23:13;17.13;;;3.83;;
53890;SDS011;41337;51.400;-2.342;2023-07-16T03:28:13;23.65;;;3.85;;
53890;SDS011;41337;51.400;-2.342;2023-07-16T03:33:14;26.17;;;4.30;;
53890;SDS011;41337;51.400;-2.342;2023-07-16T03:38:16;20.92;;;3.58;;
53890;SDS011;41337;51.400;-2.342;2023-07-16T03:43:17;21.63;;;4.22;;
53890;SDS011;41337;51.400;-2.342;2023-07-16T03:48:18;20.95;;;3.58;;
53890;SDS011;41337;51.400;-2.342;2023-07-16T03:53:19;26.73;;;3.50;;
53890;SDS011;41337;51.400;-2.342;2023-07-16T03:58:20;23.63;;;3.38;;
53890;SDS011;41337;51.400;-2.342;2023-07-16T04:03:20;25.70;;;3.55;;
53890;SDS011;41337;51.400;-2.342;2023-07-16T04:08:21;23.90;;;3.67;;
53890;SDS011;41337;51.400;-2.342;2023-07-16T04:13:22;16.33;;;3.63;;
53890;SDS011;41337;51.400;-2.342;2023-07-16T04:18:24;23.58;;;4.03;;
53890;SDS011;41337;51.400;-2.342;2023-07-16T04:23:25;26.83;;;3.85;;
53890;SDS011;41337;51.400;-2.342;2023-07-16T04:28:26;22.08;;;3.65;;
53890;SDS011;41337;51.400;-2.342;2023-07-16T04:33:26;16.58;;;3.33;;
53890;SDS011;41337;51.400;-2.342;2023-07-16T04:38:27;22.88;;;3.03;;
53890;SDS011;41337;51.400;-2.342;2023-07-16T04:43:28;19.75;;;3.40;;
53890;SDS011;41337;51.400;-2.342;2023-07-16T04:48:29;29.52;;;3.08;;
53890;SDS011;41337;51.400;-2.342;2023-07-16T04:53:30;20.23;;;2.83;;
53890;SDS011;41337;51.400;-2.342;2023-07-16T04:58:30;16.20;;;3.00;;
53890;SDS011;41337;51.400;-2.342;2023-07-16T05:03:34;12.07;;;2.80;;
53890;SDS011;41337;51.400;-2.342;2023-07-16T05:08:36;16.15;;;3.00;;
53890;SDS011;41337;51.400;-2.342;2023-07-16T05:13:37;17.33;;;3.20;;
53890;SDS011;41337;51.400;-2.342;2023-07-16T05:18:37;24.35;;;3.55;;
53890;SDS011;41337;51.400;-2.342;2023-07-16T05:23:38;17.00;;;3.30;;
53890;SDS011;41337;51.400;-2.342;2023-07-16T05:28:39;15.07;;;3.08;;
53890;SDS011;41337;51.400;-2.342;2023-07-16T05:33:40;17.27;;;2.53;;
53890;SDS011;41337;51.400;-2.342;2023-07-16T05:38:40;19.85;;;3.22;;
53890;SDS011;41337;51.400;-2.342;2023-07-16T05:43:41;19.60;;;2.90;;
53890;SDS011;41337;51.400;-2.342;2023-07-16T05:48:42;15.98;;;2.78;;
53890;SDS011;41337;51.400;-2.342;2023-07-16T05:53:43;16.70;;;2.95;;
53890;SDS011;41337;51.400;-2.342;2023-07-16T05:58:44;10.93;;;2.70;;
53890;SDS011;41337;51.400;-2.342;2023-07-16T06:03:44;13.40;;;2.88;;
53890;SDS011;41337;51.400;-2.342;2023-07-16T06:08:45;18.92;;;3.33;;
53890;SDS011;41337;51.400;-2.342;2023-07-16T06:13:46;15.25;;;2.80;;
53890;SDS011;41337;51.400;-2.342;2023-07-16T06:18:47;21.67;;;3.30;;
53890;SDS011;41337;51.400;-2.342;2023-07-16T06:23:48;15.15;;;2.78;;
53890;SDS011;41337;51.400;-2.342;2023-07-16T06:28:48;15.57;;;3.13;;
53890;SDS011;41337;51.400;-2.342;2023-07-16T06:33:50;12.05;;;2.85;;
53890;SDS011;41337;51.400;-2.342;2023-07-16T06:38:51;20.65;;;2.33;;
53890;SDS011;41337;51.400;-2.342;2023-07-16T06:43:53;25.13;;;2.95;;
53890;SDS011;41337;51.400;-2.342;2023-07-16T06:48:54;19.38;;;3.13;;
53890;SDS011;41337;51.400;-2.342;2023-07-16T06:53:55;17.65;;;3.50;;
53890;SDS011;41337;51.400;-2.342;2023-07-16T06:58:56;14.48;;;3.03;;
53890;SDS011;41337;51.400;-2.342;2023-07-16T07:03:57;15.32;;;2.30;;
53890;SDS011;41337;51.400;-2.342;2023-07-16T07:08:57;19.13;;;2.47;;
53890;SDS011;41337;51.400;-2.342;2023-07-16T07:13:58;11.50;;;2.35;;
53890;SDS011;41337;51.400;-2.342;2023-07-16T07:18:59;10.90;;;2.55;;
53890;SDS011;41337;51.400;-2.342;2023-07-16T07:24:00;17.85;;;2.30;;
53890;SDS011;41337;51.400;-2.342;2023-07-16T07:29:01;15.05;;;3.22;;
53890;SDS011;41337;51.400;-2.342;2023-07-16T07:34:02;19.35;;;2.70;;
53890;SDS011;41337;51.400;-2.342;2023-07-16T07:39:03;14.30;;;2.65;;
53890;SDS011;41337;51.400;-2.342;2023-07-16T07:44:04;8.23;;;1.77;;
53890;SDS011;41337;51.400;-2.342;2023-07-16T07:49:05;13.85;;;3.22;;
53890;SDS011;41337;51.400;-2.342;2023-07-16T07:54:05;16.60;;;2.53;;
53890;SDS011;41337;51.400;-2.342;2023-07-16T07:59:06;19.80;;;2.42;;
53890;SDS011;41337;51.400;-2.342;2023-07-16T08:04:07;18.33;;;2.13;;
53890;SDS011;41337;51.400;-2.342;2023-07-16T08:09:08;12.18;;;1.73;;
53890;SDS011;41337;51.400;-2.342;2023-07-16T08:14:09;9.55;;;2.10;;
53890;SDS011;41337;51.400;-2.342;2023-07-16T08:19:10;9.13;;;2.08;;
53890;SDS011;41337;51.400;-2.342;2023-07-16T08:24:11;10.20;;;2.42;;
53890;SDS011;41337;51.400;-2.342;2023-07-16T08:29:11;11.65;;;1.98;;
53890;SDS011;41337;51.400;-2.342;2023-07-16T08:34:14;10.40;;;1.98;;
53890;SDS011;41337;51.400;-2.342;2023-07-16T08:39:15;11.25;;;2.03;;
53890;SDS011;41337;51.400;-2.342;2023-07-16T08:44:19;10.18;;;2.17;;
53890;SDS011;41337;51.400;-2.342;2023-07-16T08:49:21;9.02;;;1.80;;
53890;SDS011;41337;51.400;-2.342;2023-07-16T08:54:22;7.78;;;1.38;;
53890;SDS011;41337;51.400;-2.342;2023-07-16T08:59:26;14.75;;;1.85;;
53890;SDS011;41337;51.400;-2.342;2023-07-16T09:04:27;9.68;;;1.73;;
53890;SDS011;41337;51.400;-2.342;2023-07-16T09:09:30;7.72;;;2.00;;
53890;SDS011;41337;51.400;-2.342;2023-07-16T09:14:30;9.18;;;1.58;;
53890;SDS011;41337;51.400;-2.342;2023-07-16T09:19:32;10.40;;;1.73;;
53890;SDS011;41337;51.400;-2.342;2023-07-16T09:24:33;10.38;;;1.58;;
53890;SDS011;41337;51.400;-2.342;2023-07-16T09:29:37;6.40;;;1.67;;
53890;SDS011;41337;51.400;-2.342;2023-07-16T09:34:38;9.85;;;1.52;;
53890;SDS011;41337;51.400;-2.342;2023-07-16T09:39:39;6.45;;;1.95;;
53890;SDS011;41337;51.400;-2.342;2023-07-16T09:44:43;6.45;;;1.48;;
53890;SDS011;41337;51.400;-2.342;2023-07-16T09:49:44;7.45;;;0.93;;
53890;SDS011;41337;51.400;-2.342;2023-07-16T09:54:46;7.50;;;1.20;;
53890;SDS011;41337;51.400;-2.342;2023-07-16T09:59:48;9.75;;;1.10;;
53890;SDS011;41337;51.400;-2.342;2023-07-16T10:04:51;3.88;;;1.15;;
53890;SDS011;41337;51.400;-2.342;2023-07-16T10:09:56;2.22;;;1.02;;
53890;SDS011;41337;51.400;-2.342;2023-07-16T10:14:57;4.55;;;1.13;;
53890;SDS011;41337;51.400;-2.342;2023-07-16T10:20:05;2.88;;;0.50;;
53890;SDS011;41337;51.400;-2.342;2023-07-16T10:25:08;3.17;;;0.75;;
53890;SDS011;41337;51.400;-2.342;2023-07-16T10:30:18;5.82;;;0.85;;
53890;SDS011;41337;51.400;-2.342;2023-07-16T10:35:21;2.80;;;0.73;;
53890;SDS011;41337;51.400;-2.342;2023-07-16T10:40:22;6.72;;;0.90;;
53890;SDS011;41337;51.400;-2.342;2023-07-16T10:45:23;2.17;;;0.57;;
53890;SDS011;41337;51.400;-2.342;2023-07-16T10:50:23;3.75;;;0.60;;
53890;SDS011;41337;51.400;-2.342;2023-07-16T10:55:26;3.40;;;0.60;;
53890;SDS011;41337;51.400;-2.342;2023-07-16T11:00:29;3.08;;;0.70;;
53890;SDS011;41337;51.400;-2.342;2023-07-16T11:05:30;2.40;;;0.80;;
53890;SDS011;41337;51.400;-2.342;2023-07-16T11:10:30;5.13;;;0.90;;
53890;SDS011;41337;51.400;-2.342;2023-07-16T11:15:32;3.97;;;0.75;;
53890;SDS011;41337;51.400;-2.342;2023-07-16T11:20:33;2.00;;;0.75;;
53890;SDS011;41337;51.400;-2.342;2023-07-16T11:25:34;4.03;;;0.80;;
53890;SDS011;41337;51.400;-2.342;2023-07-16T11:30:35;4.30;;;0.60;;
53890;SDS011;41337;51.400;-2.342;2023-07-16T11:35:36;4.03;;;1.00;;
53890;SDS011;41337;51.400;-2.342;2023-07-16T11:40:38;4.10;;;1.10;;
53890;SDS011;41337;51.400;-2.342;2023-07-16T11:45:39;4.40;;;0.80;;
53890;SDS011;41337;51.400;-2.342;2023-07-16T11:50:40;7.40;;;1.45;;
53890;SDS011;41337;51.400;-2.342;2023-07-16T11:55:40;5.63;;;0.88;;
53890;SDS011;41337;51.400;-2.342;2023-07-16T12:00:41;5.30;;;1.13;;
53890;SDS011;41337;51.400;-2.342;2023-07-16T12:05:42;4.55;;;1.15;;
53890;SDS011;41337;51.400;-2.342;2023-07-16T12:10:43;6.10;;;1.10;;
53890;SDS011;41337;51.400;-2.342;2023-07-16T12:15:44;3.38;;;0.80;;
53890;SDS011;41337;51.400;-2.342;2023-07-16T12:20:45;3.90;;;1.02;;
53890;SDS011;41337;51.400;-2.342;2023-07-16T12:25:46;7.10;;;1.05;;
53890;SDS011;41337;51.400;-2.342;2023-07-16T12:30:47;8.02;;;1.38;;
53890;SDS011;41337;51.400;-2.342;2023-07-16T12:35:48;6.00;;;1.55;;
53890;SDS011;41337;51.400;-2.342;2023-07-16T12:40:49;5.25;;;1.40;;
53890;SDS011;41337;51.400;-2.342;2023-07-16T12:45:50;7.25;;;1.80;;
53890;SDS011;41337;51.400;-2.342;2023-07-16T12:50:51;8.15;;;1.75;;
53890;SDS011;41337;51.400;-2.342;2023-07-16T12:55:52;7.07;;;1.50;;
53890;SDS011;41337;51.400;-2.342;2023-07-16T13:00:53;6.53;;;1.52;;
53890;SDS011;41337;51.400;-2.342;2023-07-16T13:05:54;4.82;;;1.40;;
53890;SDS011;41337;51.400;-2.342;2023-07-16T13:10:54;5.03;;;1.45;;
53890;SDS011;41337;51.400;-2.342;2023-07-16T13:15:55;6.03;;;1.08;;
53890;SDS011;41337;51.400;-2.342;2023-07-16T13:20:57;8.07;;;1.67;;
53890;SDS011;41337;51.400;-2.342;2023-07-16T13:25:58;11.57;;;1.45;;
53890;SDS011;41337;51.400;-2.342;2023-07-16T13:30:59;5.95;;;1.27;;
53890;SDS011;41337;51.400;-2.342;2023-07-16T13:35:59;4.72;;;1.15;;
53890;SDS011;41337;51.400;-2.342;2023-07-16T13:41:03;6.88;;;1.30;;
53890;SDS011;41337;51.400;-2.342;2023-07-16T13:46:04;4.80;;;1.15;;
53890;SDS011;41337;51.400;-2.342;2023-07-16T13:51:05;1.35;;;0.88;;
53890;SDS011;41337;51.400;-2.342;2023-07-16T13:56:05;3.00;;;0.63;;
53890;SDS011;41337;51.400;-2.342;2023-07-16T14:01:06;3.42;;;1.00;;
53890;SDS011;41337;51.400;-2.342;2023-07-16T14:06:07;5.28;;;1.00;;
53890;SDS011;41337;51.400;-2.342;2023-07-16T14:11:08;1.45;;;0.90;;
53890;SDS011;41337;51.400;-2.342;2023-07-16T14:16:09;3.22;;;1.00;;
53890;SDS011;41337;51.400;-2.342;2023-07-16T14:21:10;1.73;;;0.75;;
53890;SDS011;41337;51.400;-2.342;2023-07-16T14:26:11;6.50;;;1.75;;
53890;SDS011;41337;51.400;-2.342;2023-07-16T14:31:12;6.82;;;1.55;;
53890;SDS011;41337;51.400;-2.342;2023-07-16T14:36:13;2.78;;;0.98;;
53890;SDS011;41337;51.400;-2.342;2023-07-16T14:41:14;3.20;;;1.23;;
53890;SDS011;41337;51.400;-2.342;2023-07-16T14:46:15;2.50;;;1.00;;
53890;SDS011;41337;51.400;-2.342;2023-07-16T14:51:16;4.40;;;1.13;;
53890;SDS011;41337;51.400;-2.342;2023-07-16T14:56:18;2.38;;;1.02;;
53890;SDS011;41337;51.400;-2.342;2023-07-16T15:01:19;2.55;;;0.80;;
53890;SDS011;41337;51.400;-2.342;2023-07-16T15:06:20;2.95;;;1.20;;
53890;SDS011;41337;51.400;-2.342;2023-07-16T15:11:21;1.00;;;0.60;;
53890;SDS011;41337;51.400;-2.342;2023-07-16T15:16:22;2.75;;;1.00;;
53890;SDS011;41337;51.400;-2.342;2023-07-16T15:21:23;2.70;;;0.70;;
53890;SDS011;41337;51.400;-2.342;2023-07-16T15:26:23;3.47;;;0.93;;
53890;SDS011;41337;51.400;-2.342;2023-07-16T15:31:24;2.13;;;0.85;;
53890;SDS011;41337;51.400;-2.342;2023-07-16T15:36:29;3.30;;;0.80;;
53890;SDS011;41337;51.400;-2.342;2023-07-16T15:41:30;1.58;;;0.93;;
53890;SDS011;41337;51.400;-2.342;2023-07-16T15:46:30;2.60;;;0.75;;
53890;SDS011;41337;51.400;-2.342;2023-07-16T15:51:31;2.65;;;0.80;;
53890;SDS011;41337;51.400;-2.342;2023-07-16T15:56:35;2.22;;;0.75;;
53890;SDS011;41337;51.400;-2.342;2023-07-16T16:01:36;2.65;;;1.17;;
53890;SDS011;41337;51.400;-2.342;2023-07-16T16:06:37;3.63;;;1.27;;
53890;SDS011;41337;51.400;-2.342;2023-07-16T16:11:38;3.50;;;1.02;;
53890;SDS011;41337;51.400;-2.342;2023-07-16T16:16:38;1.42;;;1.00;;
53890;SDS011;41337;51.400;-2.342;2023-07-16T16:21:40;3.03;;;1.10;;
53890;SDS011;41337;51.400;-2.342;2023-07-16T16:26:40;2.42;;;1.00;;
53890;SDS011;41337;51.400;-2.342;2023-07-16T16:31:41;3.22;;;0.95;;
53890;SDS011;41337;51.400;-2.342;2023-07-16T16:36:42;2.88;;;1.00;;
53890;SDS011;41337;51.400;-2.342;2023-07-16T16:41:43;2.60;;;1.25;;
53890;SDS011;41337;51.400;-2.342;2023-07-16T16:46:45;4.45;;;2.13;;
53890;SDS011;41337;51.400;-2.342;2023-07-16T16:51:48;3.33;;;1.30;;
53890;SDS011;41337;51.400;-2.342;2023-07-16T16:56:49;1.88;;;1.30;;
53890;SDS011;41337;51.400;-2.342;2023-07-16T17:01:50;3.30;;;1.30;;
53890;SDS011;41337;51.400;-2.342;2023-07-16T17:06:53;2.85;;;1.63;;
53890;SDS011;41337;51.400;-2.342;2023-07-16T17:11:57;2.93;;;1.50;;
53890;SDS011;41337;51.400;-2.342;2023-07-16T17:16:58;6.97;;;1.63;;
53890;SDS011;41337;51.400;-2.342;2023-07-16T17:21:59;3.03;;;1.00;;
53890;SDS011;41337;51.400;-2.342;2023-07-16T17:27:00;3.08;;;1.20;;
53890;SDS011;41337;51.400;-2.342;2023-07-16T17:32:01;4.10;;;1.45;;
53890;SDS011;41337;51.400;-2.342;2023-07-16T17:37:03;4.90;;;1.52;;
53890;SDS011;41337;51.400;-2.342;2023-07-16T17:42:04;4.13;;;1.52;;
53890;SDS011;41337;51.400;-2.342;2023-07-16T17:47:05;3.97;;;1.45;;
53890;SDS011;41337;51.400;-2.342;2023-07-16T17:52:06;3.50;;;1.35;;
53890;SDS011;41337;51.400;-2.342;2023-07-16T17:57:07;2.95;;;1.25;;
53890;SDS011;41337;51.400;-2.342;2023-07-16T18:02:08;5.50;;;1.70;;
53890;SDS011;41337;51.400;-2.342;2023-07-16T18:07:10;5.13;;;1.25;;
53890;SDS011;41337;51.400;-2.342;2023-07-16T18:12:11;4.50;;;1.42;;
53890;SDS011;41337;51.400;-2.342;2023-07-16T18:17:12;4.00;;;1.23;;
53890;SDS011;41337;51.400;-2.342;2023-07-16T18:22:12;3.03;;;1.48;;
53890;SDS011;41337;51.400;-2.342;2023-07-16T18:27:13;6.38;;;2.25;;
53890;SDS011;41337;51.400;-2.342;2023-07-16T18:32:15;3.70;;;1.88;;
53890;SDS011;41337;51.400;-2.342;2023-07-16T18:37:15;4.85;;;1.73;;
53890;SDS011;41337;51.400;-2.342;2023-07-16T18:42:20;3.25;;;1.63;;
53890;SDS011;41337;51.400;-2.342;2023-07-16T18:47:27;3.25;;;1.85;;
53890;SDS011;41337;51.400;-2.342;2023-07-16T18:52:28;4.25;;;1.73;;
53890;SDS011;41337;51.400;-2.342;2023-07-16T18:57:29;5.03;;;2.00;;
53890;SDS011;41337;51.400;-2.342;2023-07-16T19:02:30;4.93;;;1.70;;
53890;SDS011;41337;51.400;-2.342;2023-07-16T19:07:31;7.93;;;3.10;;
53890;SDS011;41337;51.400;-2.342;2023-07-16T19:12:32;5.18;;;3.05;;
53890;SDS011;41337;51.400;-2.342;2023-07-16T19:17:33;6.38;;;2.80;;
53890;SDS011;41337;51.400;-2.342;2023-07-16T19:22:34;10.35;;;3.60;;
53890;SDS011;41337;51.400;-2.342;2023-07-16T19:27:35;10.45;;;3.75;;
53890;SDS011;41337;51.400;-2.342;2023-07-16T19:32:36;6.68;;;3.08;;
53890;SDS011;41337;51.400;-2.342;2023-07-16T19:37:36;10.02;;;3.28;;
53890;SDS011;41337;51.400;-2.342;2023-07-16T19:42:40;12.27;;;4.75;;
53890;SDS011;41337;51.400;-2.342;2023-07-16T19:47:41;9.07;;;3.83;;
53890;SDS011;41337;51.400;-2.342;2023-07-16T19:52:41;8.57;;;5.03;;
53890;SDS011;41337;51.400;-2.342;2023-07-16T19:57:42;10.02;;;3.92;;
53890;SDS011;41337;51.400;-2.342;2023-07-16T20:02:43;7.25;;;3.58;;
53890;SDS011;41337;51.400;-2.342;2023-07-16T20:07:46;8.52;;;4.10;;
53890;SDS011;41337;51.400;-2.342;2023-07-16T20:12:47;10.63;;;4.47;;
53890;SDS011;41337;51.400;-2.342;2023-07-16T20:17:47;9.25;;;4.45;;
53890;SDS011;41337;51.400;-2.342;2023-07-16T20:22:48;12.45;;;4.18;;
53890;SDS011;41337;51.400;-2.342;2023-07-16T20:27:53;11.45;;;4.43;;
53890;SDS011;41337;51.400;-2.342;2023-07-16T20:32:55;10.00;;;4.63;;
53890;SDS011;41337;51.400;-2.342;2023-07-16T20:37:56;7.95;;;4.15;;
53890;SDS011;41337;51.400;-2.342;2023-07-16T20:42:57;15.02;;;4.20;;
53890;SDS011;41337;51.400;-2.342;2023-07-16T20:47:58;10.85;;;4.72;;
53890;SDS011;41337;51.400;-2.342;2023-07-16T20:52:59;6.35;;;4.28;;
53890;SDS011;41337;51.400;-2.342;2023-07-16T20:58:00;8.55;;;4.30;;
53890;SDS011;41337;51.400;-2.342;2023-07-16T21:03:02;13.65;;;4.82;;
53890;SDS011;41337;51.400;-2.342;2023-07-16T21:08:05;10.95;;;4.57;;
53890;SDS011;41337;51.400;-2.342;2023-07-16T21:13:06;7.78;;;4.50;;
53890;SDS011;41337;51.400;-2.342;2023-07-16T21:18:07;10.07;;;4.57;;
53890;SDS011;41337;51.400;-2.342;2023-07-16T21:23:08;11.70;;;4.20;;
53890;SDS011;41337;51.400;-2.342;2023-07-16T21:28:09;9.65;;;4.65;;
53890;SDS011;41337;51.400;-2.342;2023-07-16T21:33:10;10.93;;;4.32;;
53890;SDS011;41337;51.400;-2.342;2023-07-16T21:38:11;7.05;;;4.28;;
53890;SDS011;41337;51.400;-2.342;2023-07-16T21:43:12;9.38;;;4.65;;
53890;SDS011;41337;51.400;-2.342;2023-07-16T21:48:15;9.05;;;4.43;;
53890;SDS011;41337;51.400;-2.342;2023-07-16T21:53:15;9.02;;;4.28;;
53890;SDS011;41337;51.400;-2.342;2023-07-16T21:58:16;7.55;;;4.38;;
53890;SDS011;41337;51.400;-2.342;2023-07-16T22:03:17;11.95;;;3.90;;
53890;SDS011;41337;51.400;-2.342;2023-07-16T22:08:19;7.55;;;3.80;;
53890;SDS011;41337;51.400;-2.342;2023-07-16T22:13:20;6.07;;;4.30;;
53890;SDS011;41337;51.400;-2.342;2023-07-16T22:18:21;9.13;;;3.63;;
53890;SDS011;41337;51.400;-2.342;2023-07-16T22:23:22;5.68;;;3.67;;
53890;SDS011;41337;51.400;-2.342;2023-07-16T22:28:24;11.57;;;4.55;;
53890;SDS011;41337;51.400;-2.342;2023-07-16T22:33:25;4.65;;;3.47;;
53890;SDS011;41337;51.400;-2.342;2023-07-16T22:38:26;6.70;;;3.72;;
53890;SDS011;41337;51.400;-2.342;2023-07-16T22:43:27;9.65;;;3.20;;
53890;SDS011;41337;51.400;-2.342;2023-07-16T22:48:28;7.40;;;3.30;;
53890;SDS011;41337;51.400;-2.342;2023-07-16T22:53:28;4.53;;;3.05;;
53890;SDS011;41337;51.400;-2.342;2023-07-16T22:58:29;5.93;;;3.40;;
53890;SDS011;41337;51.400;-2.342;2023-07-16T23:03:30;5.20;;;3.33;;
53890;SDS011;41337;51.400;-2.342;2023-07-16T23:08:31;5.97;;;3.17;;
53890;SDS011;41337;51.400;-2.342;2023-07-16T23:13:32;8.02;;;3.20;;
53890;SDS011;41337;51.400;-2.342;2023-07-16T23:18:33;11.93;;;3.38;;
53890;SDS011;41337;51.400;-2.342;2023-07-16T23:23:33;8.18;;;3.72;;
53890;SDS011;41337;51.400;-2.342;2023-07-16T23:28:36;8.60;;;3.72;;
53890;SDS011;41337;51.400;-2.342;2023-07-16T23:33:37;6.07;;;3.60;;
53890;SDS011;41337;51.400;-2.342;2023-07-16T23:38:37;5.88;;;3.33;;
53890;SDS011;41337;51.400;-2.342;2023-07-16T23:43:38;8.05;;;3.38;;
53890;SDS011;41337;51.400;-2.342;2023-07-16T23:48:39;8.13;;;3.58;;
53890;SDS011;41337;51.400;-2.342;2023-07-16T23:53:40;7.03;;;3.30;;
53890;SDS011;41337;51.400;-2.342;2023-07-16T23:58:41;5.60;;;2.63;;
